Aurora, Illinois
Current Conditions -  °F | °C
As of 5:52 AM on Saturday 01 Nov 2014 (Local Time) from KARR Reporting Station
Scattered Clouds Scattered Clouds  
Wind Chill: 22°   Ceiling: Unl
Heat Index: 30°   Visibility: 10mi
Dew Point: 21°   Wind: 9mph
Humidity: 69%   Direction: 330°NNW
Pressure: 30.4"   Gusts: NA
Location:  41.76°N, 88.31°W
Report Text: KARR 011052Z AUTO 33008KT 10SM SCT036 M01/M06 A3040 RMK AO2 SLP303 T10111061
Loading
Personal Weather Stations






























Interactive Weather Map
Tropical Storm Tracking
New forecast layout! Learn more

10-Day Weather Forecast

Advertisements
Track Severe Weather on mobile